Time;durP1;ratioP1;P1;durP2;ratioP2;P2;SDS_P1;SDS_P2;PMS_P1;PMS_P2;Temp;Humidity;BMP_temperature;BMP_pressure;BME280_temperature;BME280_humidity;BME280_pressure;Samples;Min_cycle;Max_cycle;Signal;HPM_P1;HPM_P2
2021/12/17 00:52:09;;;;;;;23.03;8.40;;;;;;;-0.24;100.00;100403.75;31292145;28;20065;-84
2021/12/17 01:07:12;;;;;;;27.37;8.63;;;;;;;-0.11;100.00;100389.25;31303191;28;20052;-84
2021/12/17 02:08:13;;;;;;;19.97;9.13;;;;;;;-0.23;100.00;100277.19;31285714;28;20450;-84
2021/12/17 02:38:40;;;;;;;16.97;6.37;;;;;;;0.12;100.00;100238.09;31295069;28;20053;-85
2021/12/17 02:53:43;;;;;;;16.23;6.73;;;;;;;0.24;100.00;100246.00;31285429;28;20482;-84
2021/12/17 03:08:47;;;;;;;25.37;6.67;;;;;;;0.25;100.00;100239.53;31293406;28;20482;-84
2021/12/17 03:23:50;;;;;;;24.50;6.83;;;;;;;0.24;100.00;100221.97;31310766;28;20723;-83
2021/12/17 03:38:52;;;;;;;13.70;4.90;;;;;;;0.30;100.00;100223.25;31319499;28;20052;-84
2021/12/17 03:53:57;;;;;;;22.27;6.47;;;;;;;0.35;100.00;100187.50;31308779;28;20529;-85
2021/12/17 04:08:59;;;;;;;15.17;5.03;;;;;;;0.48;100.00;100153.44;31342768;28;20124;-84
2021/12/17 04:24:01;;;;;;;20.40;5.90;;;;;;;0.57;100.00;100148.69;31311310;28;20140;-85
2021/12/17 04:39:04;;;;;;;21.37;6.20;;;;;;;0.70;100.00;100155.47;31314838;28;20399;-84
2021/12/17 05:09:41;;;;;;;18.70;7.73;;;;;;;0.77;100.00;100128.09;31296767;28;20045;-85
2021/12/17 05:24:47;;;;;;;19.67;6.27;;;;;;;0.82;100.00;100114.47;31306768;28;20888;-86
2021/12/17 05:39:52;;;;;;;20.27;6.47;;;;;;;0.85;100.00;100114.53;31302952;28;20136;-85
2021/12/17 05:54:56;;;;;;;26.17;10.27;;;;;;;0.92;100.00;100104.00;31328279;28;20048;-85
2021/12/17 06:10:01;;;;;;;23.30;8.57;;;;;;;0.93;100.00;100094.84;31310372;28;20087;-84
2021/12/17 06:25:04;;;;;;;24.17;8.73;;;;;;;0.98;100.00;100094.53;31315894;28;20053;-87
2021/12/17 06:40:08;;;;;;;20.13;8.60;;;;;;;0.96;100.00;100070.06;31371734;28;20057;-83
2021/12/17 07:10:17;;;;;;;18.40;7.30;;;;;;;1.06;100.00;100075.97;31315006;28;20057;-83
2021/12/17 07:40:40;;;;;;;12.10;5.83;;;;;;;1.31;100.00;100066.50;31352928;28;20097;-85
2021/12/17 07:55:42;;;;;;;25.43;9.23;;;;;;;1.33;100.00;100066.91;31308899;28;20057;-84
2021/12/17 08:10:50;;;;;;;17.00;9.27;;;;;;;1.22;100.00;100057.91;31327879;28;20045;-82
2021/12/17 08:26:15;;;;;;;21.50;9.23;;;;;;;1.29;100.00;100033.97;31314249;28;20838;-83
2021/12/17 08:41:19;;;;;;;20.63;8.60;;;;;;;1.34;100.00;100033.69;31373673;28;20136;-86
2021/12/17 08:56:23;;;;;;;18.93;9.27;;;;;;;1.37;100.00;100016.94;31368607;28;20084;-85
2021/12/17 09:11:29;;;;;;;15.50;7.87;;;;;;;1.35;100.00;99990.53;31359750;28;20403;-82
2021/12/17 09:26:32;;;;;;;14.13;6.87;;;;;;;1.42;100.00;99967.72;31328826;28;20055;-82
2021/12/17 09:41:35;;;;;;;16.43;8.17;;;;;;;1.73;100.00;99966.59;31312231;28;20140;-82
2021/12/17 09:56:37;;;;;;;21.00;10.40;;;;;;;1.91;100.00;99951.53;31331060;28;20057;-81
2021/12/17 10:11:59;;;;;;;15.80;7.70;;;;;;;1.85;100.00;99926.25;31330826;28;20144;-81
2021/12/17 10:27:17;;;;;;;11.37;5.57;;;;;;;1.82;100.00;99910.91;31310193;28;20476;-82
2021/12/17 10:42:30;;;;;;;16.40;7.23;;;;;;;1.84;100.00;99884.56;31332976;28;20053;-83
2021/12/17 10:57:32;;;;;;;18.60;9.57;;;;;;;1.66;100.00;99874.38;31316073;28;20068;-83
2021/12/17 11:12:35;;;;;;;32.63;15.60;;;;;;;1.63;100.00;99864.44;31314991;28;20046;-83
2021/12/17 11:27:38;;;;;;;38.80;16.27;;;;;;;1.70;100.00;99827.03;31262798;28;20133;-83
2021/12/17 11:43:17;;;;;;;28.93;11.70;;;;;;;1.74;100.00;99845.03;31329202;28;20063;-83
2021/12/17 11:58:50;;;;;;;21.20;8.47;;;;;;;1.76;100.00;99845.44;31320440;28;20050;-84
2021/12/17 12:13:55;;;;;;;24.20;9.93;;;;;;;1.86;100.00;99847.50;31349365;28;20543;-83
2021/12/17 12:29:29;;;;;;;19.30;8.33;;;;;;;1.78;100.00;99851.22;31350541;28;20133;-83
2021/12/17 12:44:49;;;;;;;21.10;8.47;;;;;;;1.77;100.00;99852.34;31334299;28;20445;-83
2021/12/17 12:59:54;;;;;;;30.30;11.70;;;;;;;1.77;100.00;99852.34;31330293;28;20498;-83
2021/12/17 13:14:57;;;;;;;26.60;10.53;;;;;;;1.83;100.00;99851.66;31342132;28;20131;-82
2021/12/17 13:29:59;;;;;;;41.90;14.37;;;;;;;1.58;100.00;99854.03;31325928;28;20056;-83
2021/12/17 13:45:10;;;;;;;32.53;12.73;;;;;;;1.63;100.00;99869.00;31306290;28;20107;-83
2021/12/17 14:00:21;;;;;;;29.30;11.83;;;;;;;1.58;100.00;99867.41;31333610;28;20103;-82
2021/12/17 14:15:30;;;;;;;27.57;11.20;;;;;;;1.49;100.00;99879.50;31293192;28;20049;-83
2021/12/17 14:30:33;;;;;;;23.23;11.63;;;;;;;1.48;100.00;99884.09;31284337;28;20053;-83
2021/12/17 14:45:42;;;;;;;26.20;12.57;;;;;;;1.59;100.00;99902.97;31315475;28;20136;-83
2021/12/17 15:15:49;;;;;;;31.37;15.20;;;;;;;1.72;100.00;99898.94;31295180;28;20128;-83
2021/12/17 15:30:55;;;;;;;36.87;14.63;;;;;;;1.73;100.00;99910.41;31298568;28;20051;-83
2021/12/17 15:45:57;;;;;;;25.57;13.37;;;;;;;1.54;100.00;99917.44;31327265;28;20057;-84
2021/12/17 16:00:59;;;;;;;39.07;15.90;;;;;;;1.57;100.00;99924.72;31335231;28;20049;-83
2021/12/17 16:31:31;;;;;;;35.13;15.23;;;;;;;1.82;100.00;99951.06;31310151;28;20132;-85
2021/12/17 16:47:01;;;;;;;27.00;11.67;;;;;;;1.85;100.00;99953.78;31339726;28;20085;-83
2021/12/17 17:01:58;;;;;;;33.33;14.13;;;;;;;1.87;100.00;99954.19;31323883;28;20100;-82
2021/12/17 17:17:01;;;;;;;33.73;13.63;;;;;;;1.92;100.00;99959.22;31349722;28;20056;-83
2021/12/17 17:32:04;;;;;;;40.47;15.20;;;;;;;1.93;100.00;99954.63;31297312;28;20057;-85
2021/12/17 17:47:06;;;;;;;36.33;13.53;;;;;;;2.01;100.00;99964.31;31330946;28;20458;-86
2021/12/17 18:02:08;;;;;;;39.20;13.73;;;;;;;2.07;100.00;99973.56;31333751;28;20046;-84
2021/12/17 18:17:10;;;;;;;35.67;14.00;;;;;;;2.04;100.00;99974.28;31324092;28;20056;-84
2021/12/17 18:32:12;;;;;;;32.07;11.53;;;;;;;2.01;100.00;99975.78;31337236;28;20136;-85
2021/12/17 18:47:14;;;;;;;25.03;10.50;;;;;;;2.04;100.00;99985.00;31329450;28;20052;-84
2021/12/17 19:02:16;;;;;;;26.03;10.17;;;;;;;1.98;100.00;99997.16;31319372;28;20050;-87
2021/12/17 19:17:19;;;;;;;25.40;10.37;;;;;;;1.95;100.00;100001.31;31299954;28;20062;-81
2021/12/17 19:32:22;;;;;;;25.47;10.93;;;;;;;2.10;100.00;99994.25;31301787;28;20059;-83
2021/12/17 19:48:28;;;;;;;32.30;11.77;;;;;;;2.06;100.00;99982.72;31293337;28;20057;-86
2021/12/17 20:03:01;;;;;;;24.77;9.97;;;;;;;2.07;100.00;99989.63;31298623;28;20049;-84
2021/12/17 20:18:04;;;;;;;29.50;12.67;;;;;;;2.01;100.00;99991.84;31305388;28;20053;-80
2021/12/17 20:33:06;;;;;;;34.33;13.03;;;;;;;2.00;100.00;100005.59;31348887;28;20057;-79
2021/12/17 20:48:09;;;;;;;30.90;12.03;;;;;;;2.04;100.00;100017.13;31314373;28;20053;-79
2021/12/17 21:03:12;;;;;;;42.23;16.20;;;;;;;2.06;100.00;100025.56;31351050;28;20052;-78
2021/12/17 21:18:15;;;;;;;33.90;12.97;;;;;;;2.00;100.00;100016.31;31309966;28;20049;-78
2021/12/17 21:33:22;;;;;;;29.33;11.70;;;;;;;1.99;100.00;100004.06;31325124;28;20052;-88
2021/12/17 21:48:24;;;;;;;35.87;12.53;;;;;;;2.00;100.00;100040.41;31315485;28;20057;-84
2021/12/17 22:03:29;;;;;;;41.30;13.77;;;;;;;1.94;100.00;100047.19;31355435;28;20044;-79
2021/12/17 22:18:41;;;;;;;29.10;10.00;;;;;;;1.90;100.00;100043.69;31305940;28;20554;-78
2021/12/17 22:33:44;;;;;;;39.37;15.83;;;;;;;1.96;100.00;100047.59;31339404;28;20498;-86
2021/12/17 22:48:50;;;;;;;28.37;12.23;;;;;;;1.99;100.00;100050.34;31295093;28;20518;-85
2021/12/17 23:04:03;;;;;;;30.77;12.60;;;;;;;1.97;100.00;100060.63;31257500;28;20542;-85
2021/12/17 23:19:06;;;;;;;33.30;13.63;;;;;;;1.97;100.00;100059.88;31258566;28;20101;-85
2021/12/17 23:49:27;;;;;;;35.43;15.20;;;;;;;1.87;100.00;100087.28;31276524;28;20073;-82
